Arlington, Iowa
Current Conditions -  °F | °C
As of 12:35 PM on Friday 31 Oct 2014 (Local Time) from KOLZ Reporting Station
Clear Clear  
Wind Chill: 28°   Ceiling: Unl
Heat Index: 37°   Visibility: 10mi
Dew Point: 19°   Wind: 17mph
Humidity: 48%   Direction: 10°N
Pressure: 30.43"   Gusts: 25mph
Location:  42.75°N, 91.67°W
Report Text: KOLZ 311735Z AUTO 01015G22KT 10SM CLR 03/M07 A3043 RMK AO2
Loading
Personal Weather Stations






























Interactive Weather Map
Tropical Storm Tracking
New forecast layout! Learn more

10-Day Weather Forecast

Advertisements
Track Severe Weather on mobile